sensor_id;sensor_type;location;lat;lon;timestamp;temperature;humidity
21648;DHT22;10985;54.182;7.890;2024-02-21T00:01:30;8.60;99.90
21648;DHT22;10985;54.182;7.890;2024-02-21T00:03:56;8.60;99.90
21648;DHT22;10985;54.182;7.890;2024-02-21T00:06:21;8.60;99.90
21648;DHT22;10985;54.182;7.890;2024-02-21T00:08:47;8.60;99.90
21648;DHT22;10985;54.182;7.890;2024-02-21T00:11:12;8.60;99.90
21648;DHT22;10985;54.182;7.890;2024-02-21T00:13:38;8.50;99.90
21648;DHT22;10985;54.182;7.890;2024-02-21T00:16:03;8.50;99.90
21648;DHT22;10985;54.182;7.890;2024-02-21T00:18:29;8.50;99.90
21648;DHT22;10985;54.182;7.890;2024-02-21T00:20:55;8.50;99.90
21648;DHT22;10985;54.182;7.890;2024-02-21T00:23:21;8.40;99.90
21648;DHT22;10985;54.182;7.890;2024-02-21T00:25:46;8.40;99.90
21648;DHT22;10985;54.182;7.890;2024-02-21T00:28:11;8.40;99.90
21648;DHT22;10985;54.182;7.890;2024-02-21T00:30:37;8.40;99.90
21648;DHT22;10985;54.182;7.890;2024-02-21T00:33:03;8.40;99.90
21648;DHT22;10985;54.182;7.890;2024-02-21T00:35:29;8.40;99.90
21648;DHT22;10985;54.182;7.890;2024-02-21T00:37:54;8.30;99.90
21648;DHT22;10985;54.182;7.890;2024-02-21T00:40:20;8.30;99.90
21648;DHT22;10985;54.182;7.890;2024-02-21T00:42:47;8.30;99.90
21648;DHT22;10985;54.182;7.890;2024-02-21T00:45:12;8.30;99.90
21648;DHT22;10985;54.182;7.890;2024-02-21T00:47:38;8.30;99.90
21648;DHT22;10985;54.182;7.890;2024-02-21T00:50:04;8.30;99.90
21648;DHT22;10985;54.182;7.890;2024-02-21T00:52:29;8.30;99.90
21648;DHT22;10985;54.182;7.890;2024-02-21T00:54:55;8.30;99.90
21648;DHT22;10985;54.182;7.890;2024-02-21T00:57:21;8.30;99.90
21648;DHT22;10985;54.182;7.890;2024-02-21T00:59:46;8.30;99.90
21648;DHT22;10985;54.182;7.890;2024-02-21T01:02:12;8.30;99.90
21648;DHT22;10985;54.182;7.890;2024-02-21T01:04:37;8.30;99.90
21648;DHT22;10985;54.182;7.890;2024-02-21T01:07:03;8.30;99.90
21648;DHT22;10985;54.182;7.890;2024-02-21T01:09:28;8.30;99.90
21648;DHT22;10985;54.182;7.890;2024-02-21T01:11:54;8.30;99.90
21648;DHT22;10985;54.182;7.890;2024-02-21T01:14:19;8.30;99.90
21648;DHT22;10985;54.182;7.890;2024-02-21T01:16:45;8.20;99.90
21648;DHT22;10985;54.182;7.890;2024-02-21T01:19:10;8.30;99.90
21648;DHT22;10985;54.182;7.890;2024-02-21T01:21:36;8.30;99.90
21648;DHT22;10985;54.182;7.890;2024-02-21T01:24:01;8.30;99.90
21648;DHT22;10985;54.182;7.890;2024-02-21T01:26:27;8.30;99.90
21648;DHT22;10985;54.182;7.890;2024-02-21T01:28:52;8.30;99.90
21648;DHT22;10985;54.182;7.890;2024-02-21T01:31:18;8.30;99.90
21648;DHT22;10985;54.182;7.890;2024-02-21T01:33:43;8.30;99.90
21648;DHT22;10985;54.182;7.890;2024-02-21T01:36:09;8.30;99.90
21648;DHT22;10985;54.182;7.890;2024-02-21T01:38:35;8.30;99.90
21648;DHT22;10985;54.182;7.890;2024-02-21T01:41:00;8.30;99.90
21648;DHT22;10985;54.182;7.890;2024-02-21T01:43:26;8.30;99.90
21648;DHT22;10985;54.182;7.890;2024-02-21T01:45:56;8.30;99.90
21648;DHT22;10985;54.182;7.890;2024-02-21T01:48:22;8.30;99.90
21648;DHT22;10985;54.182;7.890;2024-02-21T01:50:52;8.30;99.90
21648;DHT22;10985;54.182;7.890;2024-02-21T01:53:30;8.30;99.90
21648;DHT22;10985;54.182;7.890;2024-02-21T01:55:56;8.30;99.90
21648;DHT22;10985;54.182;7.890;2024-02-21T01:58:22;8.30;99.90
21648;DHT22;10985;54.182;7.890;2024-02-21T02:00:48;8.30;99.90
21648;DHT22;10985;54.182;7.890;2024-02-21T02:03:14;8.30;99.90
21648;DHT22;10985;54.182;7.890;2024-02-21T02:05:47;8.30;99.90
21648;DHT22;10985;54.182;7.890;2024-02-21T02:08:17;8.20;99.90
21648;DHT22;10985;54.182;7.890;2024-02-21T02:10:43;8.30;99.90
21648;DHT22;10985;54.182;7.890;2024-02-21T02:13:09;8.30;99.90
21648;DHT22;10985;54.182;7.890;2024-02-21T02:15:39;8.30;99.90
21648;DHT22;10985;54.182;7.890;2024-02-21T02:18:05;8.20;99.90
21648;DHT22;10985;54.182;7.890;2024-02-21T02:20:30;8.30;99.90
21648;DHT22;10985;54.182;7.890;2024-02-21T02:22:58;8.20;99.90
21648;DHT22;10985;54.182;7.890;2024-02-21T02:25:25;8.20;99.90
21648;DHT22;10985;54.182;7.890;2024-02-21T02:27:51;8.20;99.90
21648;DHT22;10985;54.182;7.890;2024-02-21T02:30:17;8.30;99.90
21648;DHT22;10985;54.182;7.890;2024-02-21T02:32:46;8.20;99.90
21648;DHT22;10985;54.182;7.890;2024-02-21T02:35:12;8.20;99.90
21648;DHT22;10985;54.182;7.890;2024-02-21T02:37:37;8.20;99.90
21648;DHT22;10985;54.182;7.890;2024-02-21T02:40:05;8.30;99.90
21648;DHT22;10985;54.182;7.890;2024-02-21T02:42:31;8.30;99.90
21648;DHT22;10985;54.182;7.890;2024-02-21T02:44:56;8.20;99.90
21648;DHT22;10985;54.182;7.890;2024-02-21T02:47:22;8.20;99.90
21648;DHT22;10985;54.182;7.890;2024-02-21T02:49:48;8.20;99.90
21648;DHT22;10985;54.182;7.890;2024-02-21T02:52:16;8.20;99.90
21648;DHT22;10985;54.182;7.890;2024-02-21T02:54:42;8.20;99.90
21648;DHT22;10985;54.182;7.890;2024-02-21T02:57:07;8.30;99.90
21648;DHT22;10985;54.182;7.890;2024-02-21T02:59:33;8.30;99.90
21648;DHT22;10985;54.182;7.890;2024-02-21T03:01:58;8.30;99.90
21648;DHT22;10985;54.182;7.890;2024-02-21T03:04:24;8.30;99.90
21648;DHT22;10985;54.182;7.890;2024-02-21T03:06:49;8.30;99.90
21648;DHT22;10985;54.182;7.890;2024-02-21T03:09:16;8.30;99.90
21648;DHT22;10985;54.182;7.890;2024-02-21T03:11:42;8.20;99.90
21648;DHT22;10985;54.182;7.890;2024-02-21T03:14:09;8.20;99.90
21648;DHT22;10985;54.182;7.890;2024-02-21T03:16:35;8.20;99.90
21648;DHT22;10985;54.182;7.890;2024-02-21T03:19:01;8.20;99.90
21648;DHT22;10985;54.182;7.890;2024-02-21T03:21:26;8.20;99.90
21648;DHT22;10985;54.182;7.890;2024-02-21T03:23:52;8.20;99.90
21648;DHT22;10985;54.182;7.890;2024-02-21T03:26:17;8.20;99.90
21648;DHT22;10985;54.182;7.890;2024-02-21T03:28:43;8.20;99.90
21648;DHT22;10985;54.182;7.890;2024-02-21T03:31:11;8.20;99.90
21648;DHT22;10985;54.182;7.890;2024-02-21T03:33:39;8.20;99.90
21648;DHT22;10985;54.182;7.890;2024-02-21T03:36:04;8.20;99.90
21648;DHT22;10985;54.182;7.890;2024-02-21T03:38:30;8.20;99.90
21648;DHT22;10985;54.182;7.890;2024-02-21T03:40:56;8.20;99.90
21648;DHT22;10985;54.182;7.890;2024-02-21T03:43:21;8.20;99.90
21648;DHT22;10985;54.182;7.890;2024-02-21T03:45:47;8.20;99.90
21648;DHT22;10985;54.182;7.890;2024-02-21T03:48:12;8.20;99.90
21648;DHT22;10985;54.182;7.890;2024-02-21T03:50:38;8.20;99.90
21648;DHT22;10985;54.182;7.890;2024-02-21T03:53:03;8.20;99.90
21648;DHT22;10985;54.182;7.890;2024-02-21T03:55:29;8.20;99.90
21648;DHT22;10985;54.182;7.890;2024-02-21T03:57:54;8.20;99.90
21648;DHT22;10985;54.182;7.890;2024-02-21T04:00:20;8.20;99.90
21648;DHT22;10985;54.182;7.890;2024-02-21T04:02:45;8.20;99.90
21648;DHT22;10985;54.182;7.890;2024-02-21T04:05:11;8.20;99.90
21648;DHT22;10985;54.182;7.890;2024-02-21T04:07:38;8.10;99.90
21648;DHT22;10985;54.182;7.890;2024-02-21T04:10:03;8.10;99.90
21648;DHT22;10985;54.182;7.890;2024-02-21T04:12:29;8.10;99.90
21648;DHT22;10985;54.182;7.890;2024-02-21T04:14:55;8.10;99.90
21648;DHT22;10985;54.182;7.890;2024-02-21T04:17:20;8.10;99.90
21648;DHT22;10985;54.182;7.890;2024-02-21T04:19:46;8.10;99.90
21648;DHT22;10985;54.182;7.890;2024-02-21T04:22:11;8.00;99.90
21648;DHT22;10985;54.182;7.890;2024-02-21T04:24:36;8.00;99.90
21648;DHT22;10985;54.182;7.890;2024-02-21T04:27:02;8.00;99.90
21648;DHT22;10985;54.182;7.890;2024-02-21T04:29:27;8.00;99.90
21648;DHT22;10985;54.182;7.890;2024-02-21T04:31:53;8.00;99.90
21648;DHT22;10985;54.182;7.890;2024-02-21T04:34:19;8.00;99.90
21648;DHT22;10985;54.182;7.890;2024-02-21T04:36:44;8.00;99.90
21648;DHT22;10985;54.182;7.890;2024-02-21T04:39:10;7.90;99.90
21648;DHT22;10985;54.182;7.890;2024-02-21T04:41:37;7.90;99.90
21648;DHT22;10985;54.182;7.890;2024-02-21T04:44:02;7.90;99.90
21648;DHT22;10985;54.182;7.890;2024-02-21T04:46:29;7.90;99.90
21648;DHT22;10985;54.182;7.890;2024-02-21T04:48:54;7.90;99.90
21648;DHT22;10985;54.182;7.890;2024-02-21T04:51:20;7.90;99.90
21648;DHT22;10985;54.182;7.890;2024-02-21T04:53:46;7.90;99.90
21648;DHT22;10985;54.182;7.890;2024-02-21T04:56:12;7.80;99.90
21648;DHT22;10985;54.182;7.890;2024-02-21T04:58:38;7.80;99.90
21648;DHT22;10985;54.182;7.890;2024-02-21T05:01:04;7.80;99.90
21648;DHT22;10985;54.182;7.890;2024-02-21T05:03:30;7.80;99.90
21648;DHT22;10985;54.182;7.890;2024-02-21T05:05:56;7.80;99.90
21648;DHT22;10985;54.182;7.890;2024-02-21T05:08:21;7.70;99.90
21648;DHT22;10985;54.182;7.890;2024-02-21T05:10:47;7.70;99.90
21648;DHT22;10985;54.182;7.890;2024-02-21T05:13:12;7.70;99.90
21648;DHT22;10985;54.182;7.890;2024-02-21T05:15:38;7.70;99.90
21648;DHT22;10985;54.182;7.890;2024-02-21T05:18:03;7.60;99.90
21648;DHT22;10985;54.182;7.890;2024-02-21T05:20:29;7.60;99.90
21648;DHT22;10985;54.182;7.890;2024-02-21T05:22:54;7.60;99.90
21648;DHT22;10985;54.182;7.890;2024-02-21T05:25:20;7.60;99.90
21648;DHT22;10985;54.182;7.890;2024-02-21T05:27:45;7.60;99.90
21648;DHT22;10985;54.182;7.890;2024-02-21T05:30:12;7.60;99.90
21648;DHT22;10985;54.182;7.890;2024-02-21T05:32:37;7.60;99.90
21648;DHT22;10985;54.182;7.890;2024-02-21T05:35:03;7.60;99.90
21648;DHT22;10985;54.182;7.890;2024-02-21T05:37:29;7.50;99.90
21648;DHT22;10985;54.182;7.890;2024-02-21T05:39:54;7.50;99.90
21648;DHT22;10985;54.182;7.890;2024-02-21T05:42:20;7.50;99.90
21648;DHT22;10985;54.182;7.890;2024-02-21T05:44:45;7.50;99.90
21648;DHT22;10985;54.182;7.890;2024-02-21T05:47:10;7.50;99.90
21648;DHT22;10985;54.182;7.890;2024-02-21T05:49:37;7.50;99.90
21648;DHT22;10985;54.182;7.890;2024-02-21T05:52:03;7.50;99.90
21648;DHT22;10985;54.182;7.890;2024-02-21T05:54:29;7.50;99.90
21648;DHT22;10985;54.182;7.890;2024-02-21T05:56:54;7.40;99.90
21648;DHT22;10985;54.182;7.890;2024-02-21T05:59:20;7.40;99.90
21648;DHT22;10985;54.182;7.890;2024-02-21T06:01:45;7.40;99.90
21648;DHT22;10985;54.182;7.890;2024-02-21T06:04:11;7.40;99.90
21648;DHT22;10985;54.182;7.890;2024-02-21T06:06:36;7.40;99.90
21648;DHT22;10985;54.182;7.890;2024-02-21T06:09:02;7.40;99.90
21648;DHT22;10985;54.182;7.890;2024-02-21T06:11:28;7.40;99.90
21648;DHT22;10985;54.182;7.890;2024-02-21T06:13:54;7.30;99.90
21648;DHT22;10985;54.182;7.890;2024-02-21T06:16:20;7.40;99.90
21648;DHT22;10985;54.182;7.890;2024-02-21T06:18:45;7.30;99.90
21648;DHT22;10985;54.182;7.890;2024-02-21T06:21:11;7.30;99.90
21648;DHT22;10985;54.182;7.890;2024-02-21T06:23:37;7.30;99.90
21648;DHT22;10985;54.182;7.890;2024-02-21T06:26:03;7.30;99.90
21648;DHT22;10985;54.182;7.890;2024-02-21T06:28:28;7.30;99.90
21648;DHT22;10985;54.182;7.890;2024-02-21T06:30:55;7.30;99.90
21648;DHT22;10985;54.182;7.890;2024-02-21T06:33:20;7.30;99.90
21648;DHT22;10985;54.182;7.890;2024-02-21T06:35:50;7.30;99.90
21648;DHT22;10985;54.182;7.890;2024-02-21T06:38:18;7.30;99.90
21648;DHT22;10985;54.182;7.890;2024-02-21T06:40:44;7.30;99.90
21648;DHT22;10985;54.182;7.890;2024-02-21T06:43:15;7.30;99.90
21648;DHT22;10985;54.182;7.890;2024-02-21T06:45:40;7.30;99.90
21648;DHT22;10985;54.182;7.890;2024-02-21T06:48:06;7.30;99.90
21648;DHT22;10985;54.182;7.890;2024-02-21T06:50:31;7.30;99.90
21648;DHT22;10985;54.182;7.890;2024-02-21T06:52:57;7.30;99.90
21648;DHT22;10985;54.182;7.890;2024-02-21T06:55:22;7.30;99.90
21648;DHT22;10985;54.182;7.890;2024-02-21T06:57:48;7.30;99.90
21648;DHT22;10985;54.182;7.890;2024-02-21T07:00:14;7.30;99.90
21648;DHT22;10985;54.182;7.890;2024-02-21T07:02:40;7.30;99.90
21648;DHT22;10985;54.182;7.890;2024-02-21T07:05:06;7.30;99.90
21648;DHT22;10985;54.182;7.890;2024-02-21T07:07:31;7.30;99.90
21648;DHT22;10985;54.182;7.890;2024-02-21T07:09:57;7.30;99.90
21648;DHT22;10985;54.182;7.890;2024-02-21T07:12:22;7.30;99.90
21648;DHT22;10985;54.182;7.890;2024-02-21T07:14:48;7.30;99.90
21648;DHT22;10985;54.182;7.890;2024-02-21T07:17:14;7.30;99.90
21648;DHT22;10985;54.182;7.890;2024-02-21T07:19:39;7.30;99.90
21648;DHT22;10985;54.182;7.890;2024-02-21T07:22:05;7.30;99.90
21648;DHT22;10985;54.182;7.890;2024-02-21T07:24:30;7.30;99.90
21648;DHT22;10985;54.182;7.890;2024-02-21T07:26:57;7.40;99.90
21648;DHT22;10985;54.182;7.890;2024-02-21T07:29:22;7.40;99.90
21648;DHT22;10985;54.182;7.890;2024-02-21T07:31:48;7.40;99.90
21648;DHT22;10985;54.182;7.890;2024-02-21T07:34:14;7.40;99.90
21648;DHT22;10985;54.182;7.890;2024-02-21T07:36:40;7.40;99.90
21648;DHT22;10985;54.182;7.890;2024-02-21T07:39:05;7.50;99.90
21648;DHT22;10985;54.182;7.890;2024-02-21T07:41:31;7.50;99.90
21648;DHT22;10985;54.182;7.890;2024-02-21T07:43:57;7.50;99.90
21648;DHT22;10985;54.182;7.890;2024-02-21T07:46:23;7.50;99.90
21648;DHT22;10985;54.182;7.890;2024-02-21T07:48:48;7.50;99.90
21648;DHT22;10985;54.182;7.890;2024-02-21T07:51:14;7.50;99.90
21648;DHT22;10985;54.182;7.890;2024-02-21T07:53:43;7.50;99.90
21648;DHT22;10985;54.182;7.890;2024-02-21T07:56:11;7.60;99.90
21648;DHT22;10985;54.182;7.890;2024-02-21T07:58:36;7.60;99.90
21648;DHT22;10985;54.182;7.890;2024-02-21T08:01:02;7.60;99.90
21648;DHT22;10985;54.182;7.890;2024-02-21T08:03:27;7.60;99.90
21648;DHT22;10985;54.182;7.890;2024-02-21T08:05:53;7.70;99.90
21648;DHT22;10985;54.182;7.890;2024-02-21T08:08:18;7.70;99.90
21648;DHT22;10985;54.182;7.890;2024-02-21T08:10:46;7.70;99.90
21648;DHT22;10985;54.182;7.890;2024-02-21T08:13:11;7.70;99.90
21648;DHT22;10985;54.182;7.890;2024-02-21T08:15:37;7.70;99.90
21648;DHT22;10985;54.182;7.890;2024-02-21T08:18:05;7.70;99.90
21648;DHT22;10985;54.182;7.890;2024-02-21T08:20:30;7.70;99.90
21648;DHT22;10985;54.182;7.890;2024-02-21T08:22:56;7.80;99.90
21648;DHT22;10985;54.182;7.890;2024-02-21T08:25:21;7.80;99.90
21648;DHT22;10985;54.182;7.890;2024-02-21T08:27:47;7.80;99.90
21648;DHT22;10985;54.182;7.890;2024-02-21T08:30:13;7.80;99.90
21648;DHT22;10985;54.182;7.890;2024-02-21T08:32:38;7.80;99.90
21648;DHT22;10985;54.182;7.890;2024-02-21T08:35:04;7.90;99.90
21648;DHT22;10985;54.182;7.890;2024-02-21T08:37:30;7.90;99.90
21648;DHT22;10985;54.182;7.890;2024-02-21T08:39:56;7.90;99.90
21648;DHT22;10985;54.182;7.890;2024-02-21T08:42:21;7.90;99.90
21648;DHT22;10985;54.182;7.890;2024-02-21T08:44:47;7.90;99.90
21648;DHT22;10985;54.182;7.890;2024-02-21T08:47:12;8.00;99.90
21648;DHT22;10985;54.182;7.890;2024-02-21T08:49:38;8.00;99.90
21648;DHT22;10985;54.182;7.890;2024-02-21T08:52:04;8.00;99.90
21648;DHT22;10985;54.182;7.890;2024-02-21T08:54:30;8.00;99.90
21648;DHT22;10985;54.182;7.890;2024-02-21T08:56:56;8.10;99.90
21648;DHT22;10985;54.182;7.890;2024-02-21T08:59:22;8.10;99.90
21648;DHT22;10985;54.182;7.890;2024-02-21T09:01:47;8.20;99.90
21648;DHT22;10985;54.182;7.890;2024-02-21T09:04:13;8.20;99.90
21648;DHT22;10985;54.182;7.890;2024-02-21T09:06:38;8.20;99.90
21648;DHT22;10985;54.182;7.890;2024-02-21T09:09:08;8.20;99.90
21648;DHT22;10985;54.182;7.890;2024-02-21T09:11:34;8.20;99.90
21648;DHT22;10985;54.182;7.890;2024-02-21T09:14:00;8.30;99.90
21648;DHT22;10985;54.182;7.890;2024-02-21T09:16:25;8.30;99.90
21648;DHT22;10985;54.182;7.890;2024-02-21T09:18:51;8.30;99.90
21648;DHT22;10985;54.182;7.890;2024-02-21T09:21:18;8.40;99.90
21648;DHT22;10985;54.182;7.890;2024-02-21T09:23:44;8.30;99.90
21648;DHT22;10985;54.182;7.890;2024-02-21T09:26:10;8.40;99.90
21648;DHT22;10985;54.182;7.890;2024-02-21T09:28:39;8.40;99.90
21648;DHT22;10985;54.182;7.890;2024-02-21T09:31:04;8.40;99.90
21648;DHT22;10985;54.182;7.890;2024-02-21T09:33:30;8.40;99.90
21648;DHT22;10985;54.182;7.890;2024-02-21T09:35:55;8.40;99.90
21648;DHT22;10985;54.182;7.890;2024-02-21T09:38:21;8.40;99.90
21648;DHT22;10985;54.182;7.890;2024-02-21T09:40:46;8.40;99.90
21648;DHT22;10985;54.182;7.890;2024-02-21T09:43:17;8.50;99.90
21648;DHT22;10985;54.182;7.890;2024-02-21T09:45:46;8.50;99.90
21648;DHT22;10985;54.182;7.890;2024-02-21T09:48:25;8.50;99.90
21648;DHT22;10985;54.182;7.890;2024-02-21T09:50:53;8.50;99.90
21648;DHT22;10985;54.182;7.890;2024-02-21T09:53:20;8.50;99.90
21648;DHT22;10985;54.182;7.890;2024-02-21T09:55:48;8.50;99.90
21648;DHT22;10985;54.182;7.890;2024-02-21T09:58:14;8.50;99.90
21648;DHT22;10985;54.182;7.890;2024-02-21T10:00:39;8.50;99.90
21648;DHT22;10985;54.182;7.890;2024-02-21T10:03:05;8.50;99.90
21648;DHT22;10985;54.182;7.890;2024-02-21T10:05:36;8.50;99.90
21648;DHT22;10985;54.182;7.890;2024-02-21T10:08:03;8.50;99.90
21648;DHT22;10985;54.182;7.890;2024-02-21T10:10:29;8.50;99.90
21648;DHT22;10985;54.182;7.890;2024-02-21T10:12:55;8.40;99.90
21648;DHT22;10985;54.182;7.890;2024-02-21T10:15:22;8.40;99.90
21648;DHT22;10985;54.182;7.890;2024-02-21T10:17:49;8.40;99.90
21648;DHT22;10985;54.182;7.890;2024-02-21T10:20:14;8.40;99.90
21648;DHT22;10985;54.182;7.890;2024-02-21T10:22:40;8.40;99.90
21648;DHT22;10985;54.182;7.890;2024-02-21T10:25:10;8.40;99.90
21648;DHT22;10985;54.182;7.890;2024-02-21T10:27:37;8.40;99.90
21648;DHT22;10985;54.182;7.890;2024-02-21T10:30:04;8.40;99.90
21648;DHT22;10985;54.182;7.890;2024-02-21T10:32:30;8.40;99.90
21648;DHT22;10985;54.182;7.890;2024-02-21T10:35:02;8.40;99.90
21648;DHT22;10985;54.182;7.890;2024-02-21T10:37:30;8.40;99.90
21648;DHT22;10985;54.182;7.890;2024-02-21T10:39:56;8.40;99.90
21648;DHT22;10985;54.182;7.890;2024-02-21T10:42:22;8.40;99.90
21648;DHT22;10985;54.182;7.890;2024-02-21T10:44:51;8.40;99.90
21648;DHT22;10985;54.182;7.890;2024-02-21T10:47:17;8.40;99.90
21648;DHT22;10985;54.182;7.890;2024-02-21T10:49:49;8.40;99.90
21648;DHT22;10985;54.182;7.890;2024-02-21T10:55:32;8.40;99.90
21648;DHT22;10985;54.182;7.890;2024-02-21T10:58:00;8.40;99.90
21648;DHT22;10985;54.182;7.890;2024-02-21T11:00:26;8.40;99.90
21648;DHT22;10985;54.182;7.890;2024-02-21T11:02:58;8.40;99.90
21648;DHT22;10985;54.182;7.890;2024-02-21T11:05:25;8.40;99.90
21648;DHT22;10985;54.182;7.890;2024-02-21T11:07:53;8.40;99.90
21648;DHT22;10985;54.182;7.890;2024-02-21T11:10:25;8.40;99.90
21648;DHT22;10985;54.182;7.890;2024-02-21T11:13:08;8.40;99.90
21648;DHT22;10985;54.182;7.890;2024-02-21T11:15:34;8.40;99.90
21648;DHT22;10985;54.182;7.890;2024-02-21T11:17:59;8.40;99.90
21648;DHT22;10985;54.182;7.890;2024-02-21T11:20:32;8.40;99.90
21648;DHT22;10985;54.182;7.890;2024-02-21T11:22:58;8.50;99.90
21648;DHT22;10985;54.182;7.890;2024-02-21T11:25:24;8.50;99.90
21648;DHT22;10985;54.182;7.890;2024-02-21T11:27:49;8.50;99.90
21648;DHT22;10985;54.182;7.890;2024-02-21T11:30:16;8.50;99.90
21648;DHT22;10985;54.182;7.890;2024-02-21T11:32:42;8.60;99.90
21648;DHT22;10985;54.182;7.890;2024-02-21T11:35:08;8.60;99.90
21648;DHT22;10985;54.182;7.890;2024-02-21T11:37:44;8.60;99.90
21648;DHT22;10985;54.182;7.890;2024-02-21T11:40:12;8.70;99.90
21648;DHT22;10985;54.182;7.890;2024-02-21T11:42:38;8.70;99.90
21648;DHT22;10985;54.182;7.890;2024-02-21T11:45:04;8.70;99.90
21648;DHT22;10985;54.182;7.890;2024-02-21T11:47:29;8.70;99.90
21648;DHT22;10985;54.182;7.890;2024-02-21T11:49:55;8.60;99.90
21648;DHT22;10985;54.182;7.890;2024-02-21T11:52:25;8.60;99.90
21648;DHT22;10985;54.182;7.890;2024-02-21T11:54:51;8.70;99.90
21648;DHT22;10985;54.182;7.890;2024-02-21T11:57:18;8.60;99.90
21648;DHT22;10985;54.182;7.890;2024-02-21T11:59:47;8.70;99.90
21648;DHT22;10985;54.182;7.890;2024-02-21T12:02:14;8.60;99.90
21648;DHT22;10985;54.182;7.890;2024-02-21T12:04:39;8.60;99.90
21648;DHT22;10985;54.182;7.890;2024-02-21T12:07:05;8.60;99.90
21648;DHT22;10985;54.182;7.890;2024-02-21T12:09:31;8.60;99.90
21648;DHT22;10985;54.182;7.890;2024-02-21T12:12:01;8.50;99.90
21648;DHT22;10985;54.182;7.890;2024-02-21T12:14:30;8.50;99.90
21648;DHT22;10985;54.182;7.890;2024-02-21T12:16:56;8.50;99.90
21648;DHT22;10985;54.182;7.890;2024-02-21T12:19:22;8.50;99.90
21648;DHT22;10985;54.182;7.890;2024-02-21T12:21:51;8.50;99.90
21648;DHT22;10985;54.182;7.890;2024-02-21T12:24:28;8.50;99.90
21648;DHT22;10985;54.182;7.890;2024-02-21T12:26:55;8.50;99.90
21648;DHT22;10985;54.182;7.890;2024-02-21T12:29:22;8.50;99.90
21648;DHT22;10985;54.182;7.890;2024-02-21T12:31:50;8.50;99.90
21648;DHT22;10985;54.182;7.890;2024-02-21T12:34:15;8.50;99.90
21648;DHT22;10985;54.182;7.890;2024-02-21T12:36:42;8.50;99.90
21648;DHT22;10985;54.182;7.890;2024-02-21T12:39:09;8.50;99.90
21648;DHT22;10985;54.182;7.890;2024-02-21T12:41:35;8.50;99.90
21648;DHT22;10985;54.182;7.890;2024-02-21T12:44:09;8.50;99.90
21648;DHT22;10985;54.182;7.890;2024-02-21T12:46:36;8.50;99.90
21648;DHT22;10985;54.182;7.890;2024-02-21T12:49:03;8.50;99.90
21648;DHT22;10985;54.182;7.890;2024-02-21T12:51:31;8.50;99.90
21648;DHT22;10985;54.182;7.890;2024-02-21T12:53:57;8.60;99.90
21648;DHT22;10985;54.182;7.890;2024-02-21T12:56:23;8.60;99.90
21648;DHT22;10985;54.182;7.890;2024-02-21T12:58:50;8.60;99.90
21648;DHT22;10985;54.182;7.890;2024-02-21T13:01:16;8.60;99.90
21648;DHT22;10985;54.182;7.890;2024-02-21T13:03:41;8.60;99.90
21648;DHT22;10985;54.182;7.890;2024-02-21T13:06:07;8.60;99.90
21648;DHT22;10985;54.182;7.890;2024-02-21T13:08:36;8.60;99.90
21648;DHT22;10985;54.182;7.890;2024-02-21T13:11:02;8.70;99.90
21648;DHT22;10985;54.182;7.890;2024-02-21T13:13:27;8.70;99.90
21648;DHT22;10985;54.182;7.890;2024-02-21T13:15:53;8.70;99.90
21648;DHT22;10985;54.182;7.890;2024-02-21T13:18:18;8.70;99.90
21648;DHT22;10985;54.182;7.890;2024-02-21T13:20:44;8.70;99.90
21648;DHT22;10985;54.182;7.890;2024-02-21T13:23:09;8.70;99.90
21648;DHT22;10985;54.182;7.890;2024-02-21T13:25:35;8.70;99.90
21648;DHT22;10985;54.182;7.890;2024-02-21T13:28:00;8.70;99.90
21648;DHT22;10985;54.182;7.890;2024-02-21T13:30:27;8.70;99.90
21648;DHT22;10985;54.182;7.890;2024-02-21T13:32:52;8.70;99.90
21648;DHT22;10985;54.182;7.890;2024-02-21T13:35:19;8.70;99.90
21648;DHT22;10985;54.182;7.890;2024-02-21T13:37:46;8.70;99.90
21648;DHT22;10985;54.182;7.890;2024-02-21T13:40:11;8.70;99.90
21648;DHT22;10985;54.182;7.890;2024-02-21T13:42:39;8.70;99.90
21648;DHT22;10985;54.182;7.890;2024-02-21T13:45:05;8.70;99.90
21648;DHT22;10985;54.182;7.890;2024-02-21T13:47:34;8.70;99.90
21648;DHT22;10985;54.182;7.890;2024-02-21T13:50:02;8.70;99.90
21648;DHT22;10985;54.182;7.890;2024-02-21T13:52:30;8.70;99.90
21648;DHT22;10985;54.182;7.890;2024-02-21T13:54:56;8.70;99.90
21648;DHT22;10985;54.182;7.890;2024-02-21T13:57:22;8.70;99.90
21648;DHT22;10985;54.182;7.890;2024-02-21T13:59:48;8.70;99.90
21648;DHT22;10985;54.182;7.890;2024-02-21T14:02:13;8.70;99.90
21648;DHT22;10985;54.182;7.890;2024-02-21T14:04:39;8.70;99.90
21648;DHT22;10985;54.182;7.890;2024-02-21T14:07:04;8.70;99.90
21648;DHT22;10985;54.182;7.890;2024-02-21T14:09:30;8.70;99.90
21648;DHT22;10985;54.182;7.890;2024-02-21T14:11:56;8.70;99.90
21648;DHT22;10985;54.182;7.890;2024-02-21T14:14:21;8.70;99.90
21648;DHT22;10985;54.182;7.890;2024-02-21T14:16:47;8.70;99.90
21648;DHT22;10985;54.182;7.890;2024-02-21T14:19:14;8.70;99.90
21648;DHT22;10985;54.182;7.890;2024-02-21T14:21:39;8.70;99.90
21648;DHT22;10985;54.182;7.890;2024-02-21T14:24:05;8.70;99.90
21648;DHT22;10985;54.182;7.890;2024-02-21T14:26:31;8.70;99.90
21648;DHT22;10985;54.182;7.890;2024-02-21T14:28:57;8.70;99.90
21648;DHT22;10985;54.182;7.890;2024-02-21T14:31:23;8.60;99.90
21648;DHT22;10985;54.182;7.890;2024-02-21T14:33:48;8.60;99.90
21648;DHT22;10985;54.182;7.890;2024-02-21T14:36:14;8.60;99.90
21648;DHT22;10985;54.182;7.890;2024-02-21T14:38:42;8.60;99.90
21648;DHT22;10985;54.182;7.890;2024-02-21T14:41:09;8.60;99.90
21648;DHT22;10985;54.182;7.890;2024-02-21T14:43:37;8.60;99.90
21648;DHT22;10985;54.182;7.890;2024-02-21T14:46:03;8.60;99.90
21648;DHT22;10985;54.182;7.890;2024-02-21T14:48:30;8.60;99.90
21648;DHT22;10985;54.182;7.890;2024-02-21T14:50:57;8.60;99.90
21648;DHT22;10985;54.182;7.890;2024-02-21T14:53:23;8.60;99.90
21648;DHT22;10985;54.182;7.890;2024-02-21T14:55:49;8.60;99.90
21648;DHT22;10985;54.182;7.890;2024-02-21T14:58:15;8.60;99.90
21648;DHT22;10985;54.182;7.890;2024-02-21T15:00:43;8.60;99.90
21648;DHT22;10985;54.182;7.890;2024-02-21T15:03:09;8.60;99.90
21648;DHT22;10985;54.182;7.890;2024-02-21T15:05:35;8.60;99.90
21648;DHT22;10985;54.182;7.890;2024-02-21T15:08:01;8.60;99.90
21648;DHT22;10985;54.182;7.890;2024-02-21T15:10:27;8.60;99.90
21648;DHT22;10985;54.182;7.890;2024-02-21T15:12:52;8.60;99.90
21648;DHT22;10985;54.182;7.890;2024-02-21T15:15:18;8.60;99.90
21648;DHT22;10985;54.182;7.890;2024-02-21T15:17:44;8.60;99.90
21648;DHT22;10985;54.182;7.890;2024-02-21T15:20:09;8.60;99.90
21648;DHT22;10985;54.182;7.890;2024-02-21T15:22:36;8.60;99.90
21648;DHT22;10985;54.182;7.890;2024-02-21T15:25:01;8.50;99.90
21648;DHT22;10985;54.182;7.890;2024-02-21T15:27:29;8.50;99.90
21648;DHT22;10985;54.182;7.890;2024-02-21T15:29:55;8.50;99.90
21648;DHT22;10985;54.182;7.890;2024-02-21T15:32:22;8.50;99.90
21648;DHT22;10985;54.182;7.890;2024-02-21T15:34:48;8.50;99.90
21648;DHT22;10985;54.182;7.890;2024-02-21T15:37:13;8.50;99.90
21648;DHT22;10985;54.182;7.890;2024-02-21T15:39:41;8.50;99.90
21648;DHT22;10985;54.182;7.890;2024-02-21T15:42:07;8.50;99.90